sensor_id;sensor_type;location;lat;lon;timestamp;pressure;altitude;pressure_sealevel;temperature;humidity
43161;BME280;40968;52.342;5.528;2023-09-12T00:00:05;101329.16;;;21.73;72.41
43161;BME280;40968;52.342;5.528;2023-09-12T00:02:31;101290.38;;;21.46;73.20
43161;BME280;40968;52.342;5.528;2023-09-12T00:04:58;101326.47;;;21.65;73.46
43161;BME280;40968;52.342;5.528;2023-09-12T00:07:26;101304.00;;;21.46;73.39
43161;BME280;40968;52.342;5.528;2023-09-12T00:09:53;101256.56;;;21.16;73.31
43161;BME280;40968;52.342;5.528;2023-09-12T00:12:22;101329.88;;;21.50;73.16
43161;BME280;40968;52.342;5.528;2023-09-12T00:14:49;101271.38;;;21.13;72.92
43161;BME280;40968;52.342;5.528;2023-09-12T00:17:16;101301.16;;;21.23;73.20
43161;BME280;40968;52.342;5.528;2023-09-12T00:19:43;101271.72;;;21.02;73.01
43161;BME280;40968;52.342;5.528;2023-09-12T00:22:09;101328.72;;;21.36;73.38
43161;BME280;40968;52.342;5.528;2023-09-12T00:24:37;101244.81;;;20.91;73.93
43161;BME280;40968;52.342;5.528;2023-09-12T00:27:04;101265.44;;;21.01;73.87
43161;BME280;40968;52.342;5.528;2023-09-12T00:29:31;101286.69;;;21.14;73.44
43161;BME280;40968;52.342;5.528;2023-09-12T00:31:58;101305.41;;;21.26;73.35
43161;BME280;40968;52.342;5.528;2023-09-12T00:34:24;101288.56;;;21.14;73.20
43161;BME280;40968;52.342;5.528;2023-09-12T00:36:51;101302.34;;;21.20;73.91
43161;BME280;40968;52.342;5.528;2023-09-12T00:39:18;101215.56;;;20.68;73.88
43161;BME280;40968;52.342;5.528;2023-09-12T00:41:46;101300.31;;;21.06;73.93
43161;BME280;40968;52.342;5.528;2023-09-12T00:44:12;101306.09;;;21.11;74.23
43161;BME280;40968;52.342;5.528;2023-09-12T00:46:39;101292.66;;;20.93;73.82
43161;BME280;40968;52.342;5.528;2023-09-12T00:49:08;101306.81;;;20.97;74.25
43161;BME280;40968;52.342;5.528;2023-09-12T00:51:35;101307.34;;;20.92;74.58
43161;BME280;40968;52.342;5.528;2023-09-12T00:54:03;101276.00;;;20.72;75.26
43161;BME280;40968;52.342;5.528;2023-09-12T00:56:30;101305.09;;;20.87;74.70
43161;BME280;40968;52.342;5.528;2023-09-12T00:58:58;101272.56;;;20.61;74.46
43161;BME280;40968;52.342;5.528;2023-09-12T01:01:26;101303.22;;;20.80;74.35
43161;BME280;40968;52.342;5.528;2023-09-12T01:03:54;101304.25;;;20.79;74.29
43161;BME280;40968;52.342;5.528;2023-09-12T01:06:23;101311.75;;;20.77;74.67
43161;BME280;40968;52.342;5.528;2023-09-12T01:08:51;101281.09;;;20.58;75.05
43161;BME280;40968;52.342;5.528;2023-09-12T01:11:18;101279.22;;;20.50;74.69
43161;BME280;40968;52.342;5.528;2023-09-12T01:13:45;101286.69;;;20.57;75.61
43161;BME280;40968;52.342;5.528;2023-09-12T01:16:13;101292.63;;;20.60;74.87
43161;BME280;40968;52.342;5.528;2023-09-12T01:18:39;101286.00;;;20.54;75.10
43161;BME280;40968;52.342;5.528;2023-09-12T01:21:21;101256.38;;;20.35;75.28
43161;BME280;40968;52.342;5.528;2023-09-12T01:24:04;101304.22;;;20.62;74.92
43161;BME280;40968;52.342;5.528;2023-09-12T01:26:41;101254.84;;;20.32;75.58
43161;BME280;40968;52.342;5.528;2023-09-12T01:29:16;101307.13;;;20.61;75.32
43161;BME280;40968;52.342;5.528;2023-09-12T01:31:43;101278.50;;;20.40;74.93
43161;BME280;40968;52.342;5.528;2023-09-12T01:34:11;101313.56;;;20.51;75.16
43161;BME280;40968;52.342;5.528;2023-09-12T01:36:38;101243.41;;;20.04;75.04
43161;BME280;40968;52.342;5.528;2023-09-12T01:39:05;101317.31;;;20.50;75.59
43161;BME280;40968;52.342;5.528;2023-09-12T01:41:35;101314.25;;;20.45;75.39
43161;BME280;40968;52.342;5.528;2023-09-12T01:44:04;101234.22;;;19.97;75.02
43161;BME280;40968;52.342;5.528;2023-09-12T01:46:34;101315.97;;;20.46;75.05
43161;BME280;40968;52.342;5.528;2023-09-12T01:49:02;101324.44;;;20.43;75.27
43161;BME280;40968;52.342;5.528;2023-09-12T01:51:30;101248.47;;;19.99;75.38
43161;BME280;40968;52.342;5.528;2023-09-12T01:53:58;101289.00;;;20.18;75.31
43161;BME280;40968;52.342;5.528;2023-09-12T01:56:26;101259.19;;;20.00;75.43
43161;BME280;40968;52.342;5.528;2023-09-12T01:58:54;101250.84;;;19.94;75.54
43161;BME280;40968;52.342;5.528;2023-09-12T02:01:21;101304.84;;;20.23;75.66
43161;BME280;40968;52.342;5.528;2023-09-12T02:03:49;101309.78;;;20.28;75.92
43161;BME280;40968;52.342;5.528;2023-09-12T02:06:15;101272.47;;;20.03;76.03
43161;BME280;40968;52.342;5.528;2023-09-12T02:08:42;101304.50;;;20.26;76.19
43161;BME280;40968;52.342;5.528;2023-09-12T02:11:09;101285.25;;;20.11;76.04
43161;BME280;40968;52.342;5.528;2023-09-12T02:13:35;101312.84;;;20.25;76.35
43161;BME280;40968;52.342;5.528;2023-09-12T02:16:02;101305.31;;;20.18;75.87
43161;BME280;40968;52.342;5.528;2023-09-12T02:18:29;101285.38;;;20.01;76.19
43161;BME280;40968;52.342;5.528;2023-09-12T02:20:58;101316.38;;;20.17;76.02
43161;BME280;40968;52.342;5.528;2023-09-12T02:23:25;101315.03;;;20.13;76.70
43161;BME280;40968;52.342;5.528;2023-09-12T02:25:51;101321.47;;;20.12;76.59
43161;BME280;40968;52.342;5.528;2023-09-12T02:28:18;101175.47;;;19.27;76.89
43161;BME280;40968;52.342;5.528;2023-09-12T02:30:44;101306.66;;;19.98;77.04
43161;BME280;40968;52.342;5.528;2023-09-12T02:33:11;101283.06;;;19.80;77.29
43161;BME280;40968;52.342;5.528;2023-09-12T02:35:38;101310.38;;;19.97;77.38
43161;BME280;40968;52.342;5.528;2023-09-12T02:38:07;101288.50;;;19.80;77.94
43161;BME280;40968;52.342;5.528;2023-09-12T02:40:34;101277.44;;;19.74;77.26
43161;BME280;40968;52.342;5.528;2023-09-12T02:43:00;101319.56;;;19.96;77.46
43161;BME280;40968;52.342;5.528;2023-09-12T02:45:27;101282.03;;;19.73;77.82
43161;BME280;40968;52.342;5.528;2023-09-12T02:47:53;101300.50;;;19.87;76.91
43161;BME280;40968;52.342;5.528;2023-09-12T02:50:20;101314.44;;;19.93;77.23
43161;BME280;40968;52.342;5.528;2023-09-12T02:52:47;101298.72;;;19.78;76.96
43161;BME280;40968;52.342;5.528;2023-09-12T02:55:15;101317.81;;;19.86;76.90
43161;BME280;40968;52.342;5.528;2023-09-12T02:57:42;101317.13;;;19.84;77.43
43161;BME280;40968;52.342;5.528;2023-09-12T03:00:09;101277.38;;;19.57;77.35
43161;BME280;40968;52.342;5.528;2023-09-12T03:02:36;101298.66;;;19.70;78.40
43161;BME280;40968;52.342;5.528;2023-09-12T03:05:03;101316.28;;;19.84;78.11
43161;BME280;40968;52.342;5.528;2023-09-12T03:07:30;101314.88;;;19.80;77.46
43161;BME280;40968;52.342;5.528;2023-09-12T03:09:57;101318.06;;;19.75;77.49
43161;BME280;40968;52.342;5.528;2023-09-12T03:12:25;101313.97;;;19.71;76.94
43161;BME280;40968;52.342;5.528;2023-09-12T03:14:52;101217.34;;;19.08;76.79
43161;BME280;40968;52.342;5.528;2023-09-12T03:17:19;101257.13;;;19.17;77.03
43161;BME280;40968;52.342;5.528;2023-09-12T03:19:46;101324.63;;;19.56;77.82
43161;BME280;40968;52.342;5.528;2023-09-12T03:22:13;101299.50;;;19.36;77.65
43161;BME280;40968;52.342;5.528;2023-09-12T03:24:39;101293.69;;;19.31;77.95
43161;BME280;40968;52.342;5.528;2023-09-12T03:27:06;101317.91;;;19.42;78.10
43161;BME280;40968;52.342;5.528;2023-09-12T03:29:35;101330.78;;;19.40;78.65
43161;BME280;40968;52.342;5.528;2023-09-12T03:32:02;101263.66;;;19.06;78.63
43161;BME280;40968;52.342;5.528;2023-09-12T03:34:29;101286.84;;;19.18;79.56
43161;BME280;40968;52.342;5.528;2023-09-12T03:36:55;101313.09;;;19.36;79.36
43161;BME280;40968;52.342;5.528;2023-09-12T03:39:22;101312.41;;;19.34;79.36
43161;BME280;40968;52.342;5.528;2023-09-12T03:41:49;101261.44;;;19.01;80.15
43161;BME280;40968;52.342;5.528;2023-09-12T03:44:15;101211.00;;;18.81;79.95
43161;BME280;40968;52.342;5.528;2023-09-12T03:46:43;101265.38;;;19.07;79.95
43161;BME280;40968;52.342;5.528;2023-09-12T03:49:10;101279.03;;;19.15;79.87
43161;BME280;40968;52.342;5.528;2023-09-12T03:51:37;101280.06;;;19.22;79.60
43161;BME280;40968;52.342;5.528;2023-09-12T03:54:04;101271.56;;;19.17;79.19
43161;BME280;40968;52.342;5.528;2023-09-12T03:56:31;101282.78;;;19.22;79.29
43161;BME280;40968;52.342;5.528;2023-09-12T03:58:58;101274.97;;;19.19;78.99
43161;BME280;40968;52.342;5.528;2023-09-12T04:01:25;101252.59;;;18.99;79.67
43161;BME280;40968;52.342;5.528;2023-09-12T04:03:53;101271.88;;;19.14;79.55
43161;BME280;40968;52.342;5.528;2023-09-12T04:06:20;101280.56;;;19.18;79.34
43161;BME280;40968;52.342;5.528;2023-09-12T04:08:46;101310.66;;;19.25;79.35
43161;BME280;40968;52.342;5.528;2023-09-12T04:11:13;101107.50;;;18.05;79.68
43161;BME280;40968;52.342;5.528;2023-09-12T04:13:40;101289.88;;;19.15;79.74
43161;BME280;40968;52.342;5.528;2023-09-12T04:16:06;101259.19;;;18.97;80.22
43161;BME280;40968;52.342;5.528;2023-09-12T04:18:33;101268.56;;;19.02;80.04
43161;BME280;40968;52.342;5.528;2023-09-12T04:21:01;101256.38;;;18.88;79.72
43161;BME280;40968;52.342;5.528;2023-09-12T04:23:28;101214.25;;;18.58;80.05
43161;BME280;40968;52.342;5.528;2023-09-12T04:25:55;101293.41;;;19.08;80.15
43161;BME280;40968;52.342;5.528;2023-09-12T04:28:21;101235.06;;;18.76;80.61
43161;BME280;40968;52.342;5.528;2023-09-12T04:30:48;101282.66;;;19.06;80.78
43161;BME280;40968;52.342;5.528;2023-09-12T04:33:15;101282.66;;;19.06;80.49
43161;BME280;40968;52.342;5.528;2023-09-12T04:35:41;101211.75;;;18.65;80.97
43161;BME280;40968;52.342;5.528;2023-09-12T04:38:09;101099.31;;;17.97;80.59
43161;BME280;40968;52.342;5.528;2023-09-12T04:40:36;101275.41;;;19.07;80.49
43161;BME280;40968;52.342;5.528;2023-09-12T04:43:04;101131.06;;;18.22;80.19
43161;BME280;40968;52.342;5.528;2023-09-12T04:45:32;101270.16;;;19.13;80.46
43161;BME280;40968;52.342;5.528;2023-09-12T04:47:59;101205.69;;;18.71;80.28
43161;BME280;40968;52.342;5.528;2023-09-12T04:50:26;101175.03;;;18.52;80.25
43161;BME280;40968;52.342;5.528;2023-09-12T04:52:52;101270.16;;;19.13;80.07
43161;BME280;40968;52.342;5.528;2023-09-12T04:55:20;101250.41;;;19.03;79.93
43161;BME280;40968;52.342;5.528;2023-09-12T04:57:47;101201.13;;;18.71;80.43
43161;BME280;40968;52.342;5.528;2023-09-12T05:00:14;101179.81;;;18.59;80.32
43161;BME280;40968;52.342;5.528;2023-09-12T05:02:40;101171.28;;;18.53;79.91
43161;BME280;40968;52.342;5.528;2023-09-12T05:05:07;101248.69;;;19.02;79.66
43161;BME280;40968;52.342;5.528;2023-09-12T05:07:34;101184.63;;;18.65;79.77
43161;BME280;40968;52.342;5.528;2023-09-12T05:10:01;101276.97;;;19.17;79.63
43161;BME280;40968;52.342;5.528;2023-09-12T05:12:29;101146.38;;;18.32;80.29
43161;BME280;40968;52.342;5.528;2023-09-12T05:14:56;101242.88;;;18.97;79.91
43161;BME280;40968;52.342;5.528;2023-09-12T05:17:22;101222.81;;;18.89;79.89
43161;BME280;40968;52.342;5.528;2023-09-12T05:19:49;101279.53;;;19.19;79.94
43161;BME280;40968;52.342;5.528;2023-09-12T05:22:16;101172.66;;;18.58;80.56
43161;BME280;40968;52.342;5.528;2023-09-12T05:24:42;101225.38;;;18.91;80.16
43161;BME280;40968;52.342;5.528;2023-09-12T05:27:09;101248.69;;;19.02;79.99
43161;BME280;40968;52.342;5.528;2023-09-12T05:29:37;101154.56;;;18.40;79.83
43161;BME280;40968;52.342;5.528;2023-09-12T05:32:04;101284.81;;;19.20;80.10
43161;BME280;40968;52.342;5.528;2023-09-12T05:34:31;101283.78;;;19.21;80.19
43161;BME280;40968;52.342;5.528;2023-09-12T05:36:58;101292.13;;;19.20;80.03
43161;BME280;40968;52.342;5.528;2023-09-12T05:39:24;101289.56;;;19.18;80.21
43161;BME280;40968;52.342;5.528;2023-09-12T05:41:51;101270.59;;;19.00;80.22
43161;BME280;40968;52.342;5.528;2023-09-12T05:44:18;101188.53;;;18.44;79.83
43161;BME280;40968;52.342;5.528;2023-09-12T05:46:46;101309.59;;;19.17;80.06
43161;BME280;40968;52.342;5.528;2023-09-12T05:49:13;101265.53;;;18.87;79.94
43161;BME280;40968;52.342;5.528;2023-09-12T05:51:40;101282.63;;;18.98;80.45
43161;BME280;40968;52.342;5.528;2023-09-12T05:54:07;101322.50;;;19.15;80.80
43161;BME280;40968;52.342;5.528;2023-09-12T05:56:34;101300.00;;;19.05;80.82
43161;BME280;40968;52.342;5.528;2023-09-12T05:59:01;101174.19;;;18.34;80.94
43161;BME280;40968;52.342;5.528;2023-09-12T06:01:28;101258.72;;;18.83;80.77
43161;BME280;40968;52.342;5.528;2023-09-12T06:03:56;101270.03;;;18.97;82.02
43161;BME280;40968;52.342;5.528;2023-09-12T06:06:22;101241.97;;;18.88;81.18
43161;BME280;40968;52.342;5.528;2023-09-12T06:08:49;101305.75;;;19.28;81.11
43161;BME280;40968;52.342;5.528;2023-09-12T06:11:16;101307.16;;;19.32;81.14
43161;BME280;40968;52.342;5.528;2023-09-12T06:13:42;101263.91;;;19.13;80.66
43161;BME280;40968;52.342;5.528;2023-09-12T06:16:09;101274.44;;;19.16;80.84
43161;BME280;40968;52.342;5.528;2023-09-12T06:18:35;101256.84;;;19.02;80.34
43161;BME280;40968;52.342;5.528;2023-09-12T06:21:03;101281.78;;;19.24;80.45
43161;BME280;40968;52.342;5.528;2023-09-12T06:23:33;101281.44;;;19.27;80.24
43161;BME280;40968;52.342;5.528;2023-09-12T06:26:00;101310.59;;;19.43;80.47
43161;BME280;40968;52.342;5.528;2023-09-12T06:28:27;101316.38;;;19.48;80.71
43161;BME280;40968;52.342;5.528;2023-09-12T06:30:55;101258.66;;;19.19;80.39
43161;BME280;40968;52.342;5.528;2023-09-12T06:33:22;101323.19;;;19.52;80.66
43161;BME280;40968;52.342;5.528;2023-09-12T06:35:49;101322.75;;;19.57;80.67
43161;BME280;40968;52.342;5.528;2023-09-12T06:38:19;101328.00;;;19.58;80.74
43161;BME280;40968;52.342;5.528;2023-09-12T06:40:46;101294.44;;;19.41;81.12
43161;BME280;40968;52.342;5.528;2023-09-12T06:43:13;101328.88;;;19.59;80.86
43161;BME280;40968;52.342;5.528;2023-09-12T06:45:40;101290.50;;;19.35;81.21
43161;BME280;40968;52.342;5.528;2023-09-12T06:48:07;101328.22;;;19.65;80.88
43161;BME280;40968;52.342;5.528;2023-09-12T06:50:34;101290.91;;;19.49;80.78
43161;BME280;40968;52.342;5.528;2023-09-12T06:53:03;101258.53;;;19.29;80.70
43161;BME280;40968;52.342;5.528;2023-09-12T06:55:32;101124.47;;;18.51;80.87
43161;BME280;40968;52.342;5.528;2023-09-12T06:57:59;101316.69;;;19.71;80.69
43161;BME280;40968;52.342;5.528;2023-09-12T07:00:25;101296.97;;;19.69;80.50
43161;BME280;40968;52.342;5.528;2023-09-12T07:02:52;101259.47;;;19.46;80.52
43161;BME280;40968;52.342;5.528;2023-09-12T07:05:19;101291.69;;;19.67;80.53
43161;BME280;40968;52.342;5.528;2023-09-12T07:07:46;101326.66;;;19.88;80.23
43161;BME280;40968;52.342;5.528;2023-09-12T07:10:12;101262.56;;;19.51;80.37
43161;BME280;40968;52.342;5.528;2023-09-12T07:12:40;101267.81;;;19.45;80.29
43161;BME280;40968;52.342;5.528;2023-09-12T07:15:07;101344.50;;;19.91;80.09
43161;BME280;40968;52.342;5.528;2023-09-12T07:17:34;101339.59;;;19.95;80.42
43161;BME280;40968;52.342;5.528;2023-09-12T07:20:01;101345.22;;;19.93;80.51
43161;BME280;40968;52.342;5.528;2023-09-12T07:22:29;101347.78;;;20.03;80.55
43161;BME280;40968;52.342;5.528;2023-09-12T07:24:59;101284.06;;;19.71;80.30
43161;BME280;40968;52.342;5.528;2023-09-12T07:27:26;101343.94;;;20.14;80.00
43161;BME280;40968;52.342;5.528;2023-09-12T07:29:55;101281.09;;;19.82;79.93
43161;BME280;40968;52.342;5.528;2023-09-12T07:32:22;101323.66;;;20.08;79.85
43161;BME280;40968;52.342;5.528;2023-09-12T07:34:50;101343.44;;;20.18;79.29
43161;BME280;40968;52.342;5.528;2023-09-12T07:37:16;101339.34;;;20.14;79.41
43161;BME280;40968;52.342;5.528;2023-09-12T07:39:43;101350.75;;;20.18;79.65
43161;BME280;40968;52.342;5.528;2023-09-12T07:42:09;101329.81;;;20.10;78.94
43161;BME280;40968;52.342;5.528;2023-09-12T07:44:36;101329.63;;;20.03;79.28
43161;BME280;40968;52.342;5.528;2023-09-12T07:47:04;101278.44;;;19.64;79.21
43161;BME280;40968;52.342;5.528;2023-09-12T07:49:31;101312.22;;;19.88;79.28
43161;BME280;40968;52.342;5.528;2023-09-12T07:51:58;101348.69;;;20.20;79.51
43161;BME280;40968;52.342;5.528;2023-09-12T07:54:25;101282.81;;;19.83;79.98
43161;BME280;40968;52.342;5.528;2023-09-12T07:56:51;101309.03;;;20.09;79.48
43161;BME280;40968;52.342;5.528;2023-09-12T07:59:18;101354.03;;;20.38;79.77
43161;BME280;40968;52.342;5.528;2023-09-12T08:01:44;101347.22;;;20.42;79.69
43161;BME280;40968;52.342;5.528;2023-09-12T08:04:13;101342.84;;;20.49;79.48
43161;BME280;40968;52.342;5.528;2023-09-12T08:06:40;101330.91;;;20.42;79.44
43161;BME280;40968;52.342;5.528;2023-09-12T08:09:06;101296.03;;;20.29;79.49
43161;BME280;40968;52.342;5.528;2023-09-12T08:11:33;101298.06;;;20.35;79.30
43161;BME280;40968;52.342;5.528;2023-09-12T08:14:00;101353.28;;;20.70;79.47
43161;BME280;40968;52.342;5.528;2023-09-12T08:16:27;101296.03;;;20.37;78.71
43161;BME280;40968;52.342;5.528;2023-09-12T08:18:53;101367.06;;;20.77;78.97
43161;BME280;40968;52.342;5.528;2023-09-12T08:21:21;101313.91;;;20.48;78.76
43161;BME280;40968;52.342;5.528;2023-09-12T08:23:48;101326.19;;;20.61;78.93
43161;BME280;40968;52.342;5.528;2023-09-12T08:26:15;101369.13;;;20.92;78.71
43161;BME280;40968;52.342;5.528;2023-09-12T08:28:41;101374.25;;;21.03;78.73
43161;BME280;40968;52.342;5.528;2023-09-12T08:31:08;101331.16;;;20.82;78.28
43161;BME280;40968;52.342;5.528;2023-09-12T08:33:35;101337.78;;;20.87;78.08
43161;BME280;40968;52.342;5.528;2023-09-12T08:36:02;101332.69;;;20.93;77.69
43161;BME280;40968;52.342;5.528;2023-09-12T08:38:29;101358.41;;;21.15;78.12
43161;BME280;40968;52.342;5.528;2023-09-12T08:40:56;101376.44;;;21.32;77.87
43161;BME280;40968;52.342;5.528;2023-09-12T08:43:23;101358.22;;;21.25;77.52
43161;BME280;40968;52.342;5.528;2023-09-12T08:45:50;101379.66;;;21.44;77.09
43161;BME280;40968;52.342;5.528;2023-09-12T08:48:17;101383.59;;;21.50;77.21
43161;BME280;40968;52.342;5.528;2023-09-12T08:50:47;101314.63;;;21.16;76.94
43161;BME280;40968;52.342;5.528;2023-09-12T08:53:15;101367.03;;;21.68;76.38
43161;BME280;40968;52.342;5.528;2023-09-12T08:55:47;101370.41;;;21.78;76.06
43161;BME280;40968;52.342;5.528;2023-09-12T08:58:14;101369.19;;;21.89;75.76
43161;BME280;40968;52.342;5.528;2023-09-12T09:00:41;101343.50;;;21.75;75.13
43161;BME280;40968;52.342;5.528;2023-09-12T09:03:08;101378.03;;;21.91;74.52
43161;BME280;40968;52.342;5.528;2023-09-12T09:05:37;101294.81;;;21.39;74.32
43161;BME280;40968;52.342;5.528;2023-09-12T09:08:06;101331.75;;;21.66;74.21
43161;BME280;40968;52.342;5.528;2023-09-12T09:10:33;101372.63;;;21.83;74.11
43161;BME280;40968;52.342;5.528;2023-09-12T09:13:01;101283.59;;;21.26;73.74
43161;BME280;40968;52.342;5.528;2023-09-12T09:15:31;101335.00;;;21.62;73.43
43161;BME280;40968;52.342;5.528;2023-09-12T09:18:01;101345.66;;;21.80;73.82
43161;BME280;40968;52.342;5.528;2023-09-12T09:20:30;101323.69;;;21.73;73.77
43161;BME280;40968;52.342;5.528;2023-09-12T09:22:59;101385.44;;;22.14;74.04
43161;BME280;40968;52.342;5.528;2023-09-12T09:25:26;101384.75;;;22.20;73.43
43161;BME280;40968;52.342;5.528;2023-09-12T09:27:53;101374.81;;;22.35;72.56
43161;BME280;40968;52.342;5.528;2023-09-12T09:30:39;101379.56;;;22.42;72.43
43161;BME280;40968;52.342;5.528;2023-09-12T09:33:05;101373.53;;;22.46;72.34
43161;BME280;40968;52.342;5.528;2023-09-12T09:35:32;101352.25;;;22.33;72.07
43161;BME280;40968;52.342;5.528;2023-09-12T09:37:59;101376.66;;;22.43;71.68
43161;BME280;40968;52.342;5.528;2023-09-12T09:40:25;101348.72;;;22.25;71.73
43161;BME280;40968;52.342;5.528;2023-09-12T09:42:53;101295.22;;;21.84;71.33
43161;BME280;40968;52.342;5.528;2023-09-12T09:45:20;101339.72;;;22.16;71.43
43161;BME280;40968;52.342;5.528;2023-09-12T09:47:49;101304.31;;;21.99;71.42
43161;BME280;40968;52.342;5.528;2023-09-12T09:50:15;101349.16;;;22.45;70.50
43161;BME280;40968;52.342;5.528;2023-09-12T09:52:42;101378.78;;;22.79;70.83
43161;BME280;40968;52.342;5.528;2023-09-12T09:55:13;101382.75;;;23.00;70.09
43161;BME280;40968;52.342;5.528;2023-09-12T09:57:40;101342.13;;;22.97;69.69
43161;BME280;40968;52.342;5.528;2023-09-12T10:00:08;101382.31;;;23.34;69.39
43161;BME280;40968;52.342;5.528;2023-09-12T10:02:40;101314.63;;;23.13;68.58
43161;BME280;40968;52.342;5.528;2023-09-12T10:05:09;101392.63;;;23.77;67.83
43161;BME280;40968;52.342;5.528;2023-09-12T10:07:37;101387.50;;;23.97;67.08
43161;BME280;40968;52.342;5.528;2023-09-12T10:10:04;101326.97;;;23.77;66.21
43161;BME280;40968;52.342;5.528;2023-09-12T10:12:34;101334.88;;;24.02;65.02
43161;BME280;40968;52.342;5.528;2023-09-12T10:15:04;101387.88;;;24.46;65.02
43161;BME280;40968;52.342;5.528;2023-09-12T10:17:36;101389.00;;;24.52;64.48
43161;BME280;40968;52.342;5.528;2023-09-12T10:20:04;101388.75;;;24.68;64.53
43161;BME280;40968;52.342;5.528;2023-09-12T10:22:39;101331.06;;;24.33;63.06
43161;BME280;40968;52.342;5.528;2023-09-12T10:25:08;101392.66;;;24.74;63.03
43161;BME280;40968;52.342;5.528;2023-09-12T10:27:36;101390.47;;;24.69;62.60
43161;BME280;40968;52.342;5.528;2023-09-12T10:30:03;101397.53;;;24.78;62.24
43161;BME280;40968;52.342;5.528;2023-09-12T10:32:31;101395.78;;;24.92;62.25
43161;BME280;40968;52.342;5.528;2023-09-12T10:34:59;101370.84;;;24.87;61.87
43161;BME280;40968;52.342;5.528;2023-09-12T10:37:28;101371.41;;;25.04;61.72
43161;BME280;40968;52.342;5.528;2023-09-12T10:39:57;101392.56;;;25.10;61.47
43161;BME280;40968;52.342;5.528;2023-09-12T10:42:27;101387.88;;;25.04;60.60
43161;BME280;40968;52.342;5.528;2023-09-12T10:44:54;101355.09;;;24.74;60.57
43161;BME280;40968;52.342;5.528;2023-09-12T10:47:21;101400.59;;;24.90;60.45
43161;BME280;40968;52.342;5.528;2023-09-12T10:49:49;101403.59;;;24.74;60.51
43161;BME280;40968;52.342;5.528;2023-09-12T10:52:24;101402.22;;;24.63;60.71
43161;BME280;40968;52.342;5.528;2023-09-12T10:54:51;101370.59;;;24.45;61.27
43161;BME280;40968;52.342;5.528;2023-09-12T10:57:19;101400.50;;;24.62;60.36
43161;BME280;40968;52.342;5.528;2023-09-12T11:00:10;101401.53;;;24.61;60.05
43161;BME280;40968;52.342;5.528;2023-09-12T11:02:38;101399.44;;;24.78;59.55
43161;BME280;40968;52.342;5.528;2023-09-12T11:05:35;101397.75;;;24.98;59.24
43161;BME280;40968;52.342;5.528;2023-09-12T11:08:02;101397.13;;;25.03;59.29
43161;BME280;40968;52.342;5.528;2023-09-12T11:10:29;101395.91;;;25.06;59.25
43161;BME280;40968;52.342;5.528;2023-09-12T11:12:58;101398.06;;;25.10;59.03
43161;BME280;40968;52.342;5.528;2023-09-12T11:15:26;101357.34;;;25.14;58.04
43161;BME280;40968;52.342;5.528;2023-09-12T11:18:01;101392.44;;;25.40;58.79
43161;BME280;40968;52.342;5.528;2023-09-12T11:20:49;101384.16;;;25.69;58.18
43161;BME280;40968;52.342;5.528;2023-09-12T11:23:17;101363.50;;;25.73;57.66
43161;BME280;40968;52.342;5.528;2023-09-12T11:25:44;101377.69;;;26.11;56.95
43161;BME280;40968;52.342;5.528;2023-09-12T11:28:12;101348.09;;;26.13;55.28
43161;BME280;40968;52.342;5.528;2023-09-12T11:30:54;101324.91;;;26.23;54.25
43161;BME280;40968;52.342;5.528;2023-09-12T11:33:23;101377.69;;;26.73;53.99
43161;BME280;40968;52.342;5.528;2023-09-12T11:35:52;101378.78;;;26.92;53.12
43161;BME280;40968;52.342;5.528;2023-09-12T11:38:26;101384.69;;;26.83;53.34
43161;BME280;40968;52.342;5.528;2023-09-12T11:40:53;101366.94;;;26.98;53.04
43161;BME280;40968;52.342;5.528;2023-09-12T11:43:23;101369.06;;;27.03;52.52
43161;BME280;40968;52.342;5.528;2023-09-12T11:45:50;101335.63;;;26.86;52.21
43161;BME280;40968;52.342;5.528;2023-09-12T11:48:18;101319.72;;;26.68;52.14
43161;BME280;40968;52.342;5.528;2023-09-12T11:50:49;101353.81;;;26.80;52.89
43161;BME280;40968;52.342;5.528;2023-09-12T11:53:20;101360.16;;;26.74;52.85
43161;BME280;40968;52.342;5.528;2023-09-12T11:55:48;101317.97;;;26.40;53.20
43161;BME280;40968;52.342;5.528;2023-09-12T11:58:17;101361.59;;;26.70;53.17
43161;BME280;40968;52.342;5.528;2023-09-12T12:00:45;101296.44;;;26.37;53.97
43161;BME280;40968;52.342;5.528;2023-09-12T12:03:13;101356.34;;;26.89;53.28
43161;BME280;40968;52.342;5.528;2023-09-12T12:05:40;101356.34;;;26.89;53.09
43161;BME280;40968;52.342;5.528;2023-09-12T12:08:07;101337.53;;;26.86;52.62
43161;BME280;40968;52.342;5.528;2023-09-12T12:10:34;101360.38;;;27.06;52.93
43161;BME280;40968;52.342;5.528;2023-09-12T12:13:01;101340.28;;;27.12;51.45
43161;BME280;40968;52.342;5.528;2023-09-12T12:15:27;101269.66;;;26.79;51.11
43161;BME280;40968;52.342;5.528;2023-09-12T12:17:56;101350.44;;;27.32;51.03
43161;BME280;40968;52.342;5.528;2023-09-12T12:20:23;101296.50;;;27.04;50.05
43161;BME280;40968;52.342;5.528;2023-09-12T12:22:49;101346.63;;;27.33;50.27
43161;BME280;40968;52.342;5.528;2023-09-12T12:25:17;101325.69;;;27.12;49.64
43161;BME280;40968;52.342;5.528;2023-09-12T12:27:44;101316.38;;;27.06;49.29
43161;BME280;40968;52.342;5.528;2023-09-12T12:30:12;101350.00;;;27.22;48.61
43161;BME280;40968;52.342;5.528;2023-09-12T12:32:39;101317.41;;;27.05;48.95
43161;BME280;40968;52.342;5.528;2023-09-12T12:35:09;101332.25;;;27.04;49.35
43161;BME280;40968;52.342;5.528;2023-09-12T12:37:37;101275.13;;;26.66;48.25
43161;BME280;40968;52.342;5.528;2023-09-12T12:40:04;101337.31;;;27.07;48.66
43161;BME280;40968;52.342;5.528;2023-09-12T12:42:37;101312.81;;;26.92;49.19
43161;BME280;40968;52.342;5.528;2023-09-12T12:45:10;101315.94;;;26.89;49.26
43161;BME280;40968;52.342;5.528;2023-09-12T12:47:37;101311.09;;;26.85;50.09
43161;BME280;40968;52.342;5.528;2023-09-12T12:50:10;101333.53;;;26.95;49.27
43161;BME280;40968;52.342;5.528;2023-09-12T12:52:37;101303.00;;;26.63;49.89